sensor_id;sensor_type;location;lat;lon;timestamp;P1;durP1;ratioP1;P2;durP2;ratioP2
11496;SDS011;5805;51.542;7.230;2023-03-01T00:00:12;6.17;;;4.00;;
11496;SDS011;5805;51.542;7.230;2023-03-01T00:02:38;7.60;;;4.13;;
11496;SDS011;5805;51.542;7.230;2023-03-01T00:05:04;7.73;;;4.40;;
11496;SDS011;5805;51.542;7.230;2023-03-01T00:07:31;5.00;;;4.17;;
11496;SDS011;5805;51.542;7.230;2023-03-01T00:09:56;4.80;;;4.00;;
11496;SDS011;5805;51.542;7.230;2023-03-01T00:12:22;6.10;;;4.60;;
11496;SDS011;5805;51.542;7.230;2023-03-01T00:14:48;4.80;;;3.90;;
11496;SDS011;5805;51.542;7.230;2023-03-01T00:17:15;6.10;;;4.17;;
11496;SDS011;5805;51.542;7.230;2023-03-01T00:19:41;5.10;;;3.87;;
11496;SDS011;5805;51.542;7.230;2023-03-01T00:22:06;4.77;;;3.87;;
11496;SDS011;5805;51.542;7.230;2023-03-01T00:24:32;6.00;;;4.03;;
11496;SDS011;5805;51.542;7.230;2023-03-01T00:26:58;5.40;;;4.07;;
11496;SDS011;5805;51.542;7.230;2023-03-01T00:29:23;7.37;;;4.73;;
11496;SDS011;5805;51.542;7.230;2023-03-01T00:31:49;5.37;;;4.00;;
11496;SDS011;5805;51.542;7.230;2023-03-01T00:34:16;6.20;;;3.70;;
11496;SDS011;5805;51.542;7.230;2023-03-01T00:36:42;6.43;;;4.30;;
11496;SDS011;5805;51.542;7.230;2023-03-01T00:39:09;9.40;;;4.27;;
11496;SDS011;5805;51.542;7.230;2023-03-01T00:41:36;5.77;;;4.33;;
11496;SDS011;5805;51.542;7.230;2023-03-01T00:44:02;6.27;;;3.70;;
11496;SDS011;5805;51.542;7.230;2023-03-01T00:46:28;6.00;;;4.13;;
11496;SDS011;5805;51.542;7.230;2023-03-01T00:48:54;5.83;;;3.80;;
11496;SDS011;5805;51.542;7.230;2023-03-01T00:51:22;5.53;;;3.97;;
11496;SDS011;5805;51.542;7.230;2023-03-01T00:53:49;6.07;;;4.40;;
11496;SDS011;5805;51.542;7.230;2023-03-01T00:56:16;5.83;;;3.73;;
11496;SDS011;5805;51.542;7.230;2023-03-01T00:58:42;5.70;;;3.93;;
11496;SDS011;5805;51.542;7.230;2023-03-01T01:01:08;4.77;;;3.77;;
11496;SDS011;5805;51.542;7.230;2023-03-01T01:03:34;6.73;;;3.90;;
11496;SDS011;5805;51.542;7.230;2023-03-01T01:06:00;7.63;;;3.73;;
11496;SDS011;5805;51.542;7.230;2023-03-01T01:08:27;6.37;;;4.17;;
11496;SDS011;5805;51.542;7.230;2023-03-01T01:10:53;5.83;;;4.50;;
11496;SDS011;5805;51.542;7.230;2023-03-01T01:13:18;5.03;;;3.97;;
11496;SDS011;5805;51.542;7.230;2023-03-01T01:15:44;5.00;;;3.90;;
11496;SDS011;5805;51.542;7.230;2023-03-01T01:18:10;6.03;;;3.87;;
11496;SDS011;5805;51.542;7.230;2023-03-01T01:20:35;4.93;;;3.67;;
11496;SDS011;5805;51.542;7.230;2023-03-01T01:23:01;6.50;;;3.70;;
11496;SDS011;5805;51.542;7.230;2023-03-01T01:25:28;5.03;;;3.90;;
11496;SDS011;5805;51.542;7.230;2023-03-01T01:27:54;7.60;;;4.00;;
11496;SDS011;5805;51.542;7.230;2023-03-01T01:30:20;5.13;;;3.93;;
11496;SDS011;5805;51.542;7.230;2023-03-01T01:32:45;5.70;;;4.40;;
11496;SDS011;5805;51.542;7.230;2023-03-01T01:35:14;6.60;;;4.17;;
11496;SDS011;5805;51.542;7.230;2023-03-01T01:37:40;5.97;;;4.10;;
11496;SDS011;5805;51.542;7.230;2023-03-01T01:40:06;6.80;;;3.83;;
11496;SDS011;5805;51.542;7.230;2023-03-01T01:42:35;7.13;;;3.77;;
11496;SDS011;5805;51.542;7.230;2023-03-01T01:47:55;6.50;;;4.23;;
11496;SDS011;5805;51.542;7.230;2023-03-01T01:50:23;6.40;;;3.93;;
11496;SDS011;5805;51.542;7.230;2023-03-01T01:52:50;6.90;;;4.40;;
11496;SDS011;5805;51.542;7.230;2023-03-01T01:55:18;6.37;;;4.40;;
11496;SDS011;5805;51.542;7.230;2023-03-01T01:57:48;5.17;;;4.13;;
11496;SDS011;5805;51.542;7.230;2023-03-01T02:00:18;4.67;;;3.83;;
11496;SDS011;5805;51.542;7.230;2023-03-01T02:02:45;5.37;;;3.80;;
11496;SDS011;5805;51.542;7.230;2023-03-01T02:05:14;6.87;;;3.93;;
11496;SDS011;5805;51.542;7.230;2023-03-01T02:07:46;4.90;;;4.07;;
11496;SDS011;5805;51.542;7.230;2023-03-01T02:10:12;6.10;;;4.20;;
11496;SDS011;5805;51.542;7.230;2023-03-01T02:12:38;4.67;;;3.73;;
11496;SDS011;5805;51.542;7.230;2023-03-01T02:15:07;5.70;;;4.33;;
11496;SDS011;5805;51.542;7.230;2023-03-01T02:17:33;6.70;;;4.30;;
11496;SDS011;5805;51.542;7.230;2023-03-01T02:20:03;4.67;;;3.70;;
11496;SDS011;5805;51.542;7.230;2023-03-01T02:22:39;4.13;;;3.67;;
11496;SDS011;5805;51.542;7.230;2023-03-01T02:25:12;5.10;;;3.50;;
11496;SDS011;5805;51.542;7.230;2023-03-01T02:27:49;5.90;;;4.07;;
11496;SDS011;5805;51.542;7.230;2023-03-01T02:30:23;7.43;;;4.13;;
11496;SDS011;5805;51.542;7.230;2023-03-01T02:32:50;6.20;;;4.17;;
11496;SDS011;5805;51.542;7.230;2023-03-01T02:35:19;6.50;;;4.03;;
11496;SDS011;5805;51.542;7.230;2023-03-01T02:37:46;6.20;;;4.33;;
11496;SDS011;5805;51.542;7.230;2023-03-01T02:40:14;5.20;;;3.90;;
11496;SDS011;5805;51.542;7.230;2023-03-01T02:42:43;6.13;;;3.87;;
11496;SDS011;5805;51.542;7.230;2023-03-01T02:45:13;5.73;;;4.30;;
11496;SDS011;5805;51.542;7.230;2023-03-01T02:47:40;5.20;;;4.33;;
11496;SDS011;5805;51.542;7.230;2023-03-01T02:50:11;8.83;;;4.37;;
11496;SDS011;5805;51.542;7.230;2023-03-01T02:52:47;4.90;;;3.70;;
11496;SDS011;5805;51.542;7.230;2023-03-01T02:55:21;5.63;;;4.10;;
11496;SDS011;5805;51.542;7.230;2023-03-01T02:57:46;6.53;;;3.80;;
11496;SDS011;5805;51.542;7.230;2023-03-01T03:00:14;6.20;;;4.17;;
11496;SDS011;5805;51.542;7.230;2023-03-01T03:02:44;4.60;;;4.13;;
11496;SDS011;5805;51.542;7.230;2023-03-01T03:05:11;6.03;;;4.13;;
11496;SDS011;5805;51.542;7.230;2023-03-01T03:07:39;7.30;;;4.60;;
11496;SDS011;5805;51.542;7.230;2023-03-01T03:10:08;7.53;;;4.10;;
11496;SDS011;5805;51.542;7.230;2023-03-01T03:12:35;5.67;;;3.77;;
11496;SDS011;5805;51.542;7.230;2023-03-01T03:15:01;6.37;;;3.87;;
11496;SDS011;5805;51.542;7.230;2023-03-01T03:17:27;5.00;;;4.10;;
11496;SDS011;5805;51.542;7.230;2023-03-01T03:19:54;4.43;;;3.87;;
11496;SDS011;5805;51.542;7.230;2023-03-01T03:22:20;5.37;;;4.10;;
11496;SDS011;5805;51.542;7.230;2023-03-01T03:24:46;8.20;;;4.20;;
11496;SDS011;5805;51.542;7.230;2023-03-01T03:27:11;5.60;;;4.37;;
11496;SDS011;5805;51.542;7.230;2023-03-01T03:29:37;5.23;;;3.90;;
11496;SDS011;5805;51.542;7.230;2023-03-01T03:32:03;6.33;;;3.90;;
11496;SDS011;5805;51.542;7.230;2023-03-01T03:34:29;5.53;;;4.20;;
11496;SDS011;5805;51.542;7.230;2023-03-01T03:36:56;4.70;;;3.80;;
11496;SDS011;5805;51.542;7.230;2023-03-01T03:39:22;5.70;;;4.13;;
11496;SDS011;5805;51.542;7.230;2023-03-01T03:41:47;5.00;;;4.10;;
11496;SDS011;5805;51.542;7.230;2023-03-01T03:44:13;6.00;;;4.13;;
11496;SDS011;5805;51.542;7.230;2023-03-01T03:46:39;5.13;;;4.60;;
11496;SDS011;5805;51.542;7.230;2023-03-01T03:49:04;5.77;;;4.40;;
11496;SDS011;5805;51.542;7.230;2023-03-01T03:51:30;9.83;;;4.20;;
11496;SDS011;5805;51.542;7.230;2023-03-01T03:53:57;4.87;;;3.93;;
11496;SDS011;5805;51.542;7.230;2023-03-01T03:56:23;6.50;;;3.93;;
11496;SDS011;5805;51.542;7.230;2023-03-01T03:58:48;5.33;;;3.87;;
11496;SDS011;5805;51.542;7.230;2023-03-01T04:01:14;5.50;;;4.00;;
11496;SDS011;5805;51.542;7.230;2023-03-01T04:03:40;6.07;;;4.10;;
11496;SDS011;5805;51.542;7.230;2023-03-01T04:06:05;5.23;;;4.50;;
11496;SDS011;5805;51.542;7.230;2023-03-01T04:08:31;6.20;;;4.60;;
11496;SDS011;5805;51.542;7.230;2023-03-01T04:10:59;4.93;;;4.03;;
11496;SDS011;5805;51.542;7.230;2023-03-01T04:13:26;5.87;;;4.33;;
11496;SDS011;5805;51.542;7.230;2023-03-01T04:15:52;5.47;;;4.37;;
11496;SDS011;5805;51.542;7.230;2023-03-01T04:18:19;5.40;;;4.50;;
11496;SDS011;5805;51.542;7.230;2023-03-01T04:20:45;5.47;;;4.50;;
11496;SDS011;5805;51.542;7.230;2023-03-01T04:23:12;5.53;;;4.07;;
11496;SDS011;5805;51.542;7.230;2023-03-01T04:25:39;5.67;;;4.37;;
11496;SDS011;5805;51.542;7.230;2023-03-01T04:28:07;5.63;;;4.20;;
11496;SDS011;5805;51.542;7.230;2023-03-01T04:30:34;6.63;;;4.20;;
11496;SDS011;5805;51.542;7.230;2023-03-01T04:33:00;5.23;;;4.60;;
11496;SDS011;5805;51.542;7.230;2023-03-01T04:35:26;6.90;;;4.83;;
11496;SDS011;5805;51.542;7.230;2023-03-01T04:37:52;5.43;;;4.27;;
11496;SDS011;5805;51.542;7.230;2023-03-01T04:40:18;4.80;;;4.00;;
11496;SDS011;5805;51.542;7.230;2023-03-01T04:42:43;7.07;;;4.47;;
11496;SDS011;5805;51.542;7.230;2023-03-01T04:45:11;7.60;;;4.20;;
11496;SDS011;5805;51.542;7.230;2023-03-01T04:47:37;6.17;;;4.07;;
11496;SDS011;5805;51.542;7.230;2023-03-01T04:50:02;5.30;;;4.47;;
11496;SDS011;5805;51.542;7.230;2023-03-01T04:52:28;6.67;;;4.13;;
11496;SDS011;5805;51.542;7.230;2023-03-01T04:54:54;5.37;;;3.90;;
11496;SDS011;5805;51.542;7.230;2023-03-01T04:57:20;5.73;;;4.40;;
11496;SDS011;5805;51.542;7.230;2023-03-01T04:59:45;5.33;;;3.73;;
11496;SDS011;5805;51.542;7.230;2023-03-01T05:02:13;6.37;;;4.70;;
11496;SDS011;5805;51.542;7.230;2023-03-01T05:04:38;8.27;;;4.17;;
11496;SDS011;5805;51.542;7.230;2023-03-01T05:07:04;5.27;;;4.30;;
11496;SDS011;5805;51.542;7.230;2023-03-01T05:09:30;6.23;;;4.70;;
11496;SDS011;5805;51.542;7.230;2023-03-01T05:11:55;6.30;;;4.27;;
11496;SDS011;5805;51.542;7.230;2023-03-01T05:14:21;7.93;;;4.33;;
11496;SDS011;5805;51.542;7.230;2023-03-01T05:16:47;6.93;;;4.27;;
11496;SDS011;5805;51.542;7.230;2023-03-01T05:19:14;6.20;;;4.10;;
11496;SDS011;5805;51.542;7.230;2023-03-01T05:21:39;5.70;;;4.20;;
11496;SDS011;5805;51.542;7.230;2023-03-01T05:24:06;7.00;;;4.23;;
11496;SDS011;5805;51.542;7.230;2023-03-01T05:26:32;4.93;;;4.10;;
11496;SDS011;5805;51.542;7.230;2023-03-01T05:28:57;5.63;;;4.20;;
11496;SDS011;5805;51.542;7.230;2023-03-01T05:31:23;4.67;;;3.90;;
11496;SDS011;5805;51.542;7.230;2023-03-01T05:33:49;6.70;;;4.30;;
11496;SDS011;5805;51.542;7.230;2023-03-01T05:36:16;8.07;;;4.40;;
11496;SDS011;5805;51.542;7.230;2023-03-01T05:38:41;5.60;;;4.33;;
11496;SDS011;5805;51.542;7.230;2023-03-01T05:41:13;5.43;;;4.30;;
11496;SDS011;5805;51.542;7.230;2023-03-01T05:43:39;9.47;;;4.27;;
11496;SDS011;5805;51.542;7.230;2023-03-01T05:46:05;8.87;;;4.60;;
11496;SDS011;5805;51.542;7.230;2023-03-01T05:48:30;7.67;;;4.63;;
11496;SDS011;5805;51.542;7.230;2023-03-01T05:50:58;6.43;;;4.40;;
11496;SDS011;5805;51.542;7.230;2023-03-01T05:53:26;6.67;;;4.10;;
11496;SDS011;5805;51.542;7.230;2023-03-01T05:55:52;5.97;;;4.87;;
11496;SDS011;5805;51.542;7.230;2023-03-01T05:58:18;6.00;;;4.27;;
11496;SDS011;5805;51.542;7.230;2023-03-01T06:00:44;7.43;;;4.80;;
11496;SDS011;5805;51.542;7.230;2023-03-01T06:03:12;8.07;;;4.60;;
11496;SDS011;5805;51.542;7.230;2023-03-01T06:05:39;5.63;;;4.60;;
11496;SDS011;5805;51.542;7.230;2023-03-01T06:08:05;9.50;;;4.40;;
11496;SDS011;5805;51.542;7.230;2023-03-01T06:10:33;6.50;;;4.30;;
11496;SDS011;5805;51.542;7.230;2023-03-01T06:12:58;7.60;;;5.00;;
11496;SDS011;5805;51.542;7.230;2023-03-01T06:15:24;5.10;;;4.00;;
11496;SDS011;5805;51.542;7.230;2023-03-01T06:17:50;7.80;;;4.60;;
11496;SDS011;5805;51.542;7.230;2023-03-01T06:20:19;5.20;;;3.83;;
11496;SDS011;5805;51.542;7.230;2023-03-01T06:22:46;8.47;;;4.77;;
11496;SDS011;5805;51.542;7.230;2023-03-01T06:25:13;6.60;;;4.57;;
11496;SDS011;5805;51.542;7.230;2023-03-01T06:27:43;5.33;;;4.37;;
11496;SDS011;5805;51.542;7.230;2023-03-01T06:30:09;6.40;;;4.23;;
11496;SDS011;5805;51.542;7.230;2023-03-01T06:32:37;5.60;;;4.30;;
11496;SDS011;5805;51.542;7.230;2023-03-01T06:35:03;7.00;;;4.80;;
11496;SDS011;5805;51.542;7.230;2023-03-01T06:37:29;7.43;;;4.77;;
11496;SDS011;5805;51.542;7.230;2023-03-01T06:39:55;7.00;;;4.80;;
11496;SDS011;5805;51.542;7.230;2023-03-01T06:42:20;7.40;;;4.80;;
11496;SDS011;5805;51.542;7.230;2023-03-01T06:44:48;7.30;;;4.80;;
11496;SDS011;5805;51.542;7.230;2023-03-01T06:47:13;10.20;;;5.47;;
11496;SDS011;5805;51.542;7.230;2023-03-01T06:49:39;14.00;;;5.93;;
11496;SDS011;5805;51.542;7.230;2023-03-01T06:52:05;8.67;;;5.77;;
11496;SDS011;5805;51.542;7.230;2023-03-01T06:54:31;7.77;;;5.63;;
11496;SDS011;5805;51.542;7.230;2023-03-01T06:56:57;9.60;;;5.37;;
11496;SDS011;5805;51.542;7.230;2023-03-01T06:59:22;10.53;;;6.20;;
11496;SDS011;5805;51.542;7.230;2023-03-01T07:01:49;8.97;;;6.47;;
11496;SDS011;5805;51.542;7.230;2023-03-01T07:04:15;6.33;;;5.13;;
11496;SDS011;5805;51.542;7.230;2023-03-01T07:06:40;9.63;;;5.70;;
11496;SDS011;5805;51.542;7.230;2023-03-01T07:09:06;10.47;;;5.33;;
11496;SDS011;5805;51.542;7.230;2023-03-01T07:11:32;8.13;;;5.07;;
11496;SDS011;5805;51.542;7.230;2023-03-01T07:13:58;6.77;;;5.23;;
11496;SDS011;5805;51.542;7.230;2023-03-01T07:16:23;6.93;;;4.97;;
11496;SDS011;5805;51.542;7.230;2023-03-01T07:18:50;8.63;;;5.17;;
11496;SDS011;5805;51.542;7.230;2023-03-01T07:21:16;8.73;;;4.77;;
11496;SDS011;5805;51.542;7.230;2023-03-01T07:23:42;7.90;;;4.80;;
11496;SDS011;5805;51.542;7.230;2023-03-01T07:26:08;12.23;;;4.97;;
11496;SDS011;5805;51.542;7.230;2023-03-01T07:28:33;7.13;;;4.87;;
11496;SDS011;5805;51.542;7.230;2023-03-01T07:31:00;9.80;;;5.82;;
11496;SDS011;5805;51.542;7.230;2023-03-01T07:33:26;9.00;;;4.90;;
11496;SDS011;5805;51.542;7.230;2023-03-01T07:35:56;6.90;;;5.30;;
11496;SDS011;5805;51.542;7.230;2023-03-01T07:38:23;11.43;;;5.70;;
11496;SDS011;5805;51.542;7.230;2023-03-01T07:40:49;7.40;;;5.53;;
11496;SDS011;5805;51.542;7.230;2023-03-01T07:43:14;6.87;;;5.47;;
11496;SDS011;5805;51.542;7.230;2023-03-01T07:45:40;10.03;;;6.40;;
11496;SDS011;5805;51.542;7.230;2023-03-01T07:48:05;9.57;;;6.27;;
11496;SDS011;5805;51.542;7.230;2023-03-01T07:50:31;10.20;;;5.80;;
11496;SDS011;5805;51.542;7.230;2023-03-01T07:52:58;8.00;;;5.20;;
11496;SDS011;5805;51.542;7.230;2023-03-01T07:55:24;9.47;;;5.27;;
11496;SDS011;5805;51.542;7.230;2023-03-01T07:57:50;8.77;;;5.47;;
11496;SDS011;5805;51.542;7.230;2023-03-01T08:00:16;5.90;;;4.80;;
11496;SDS011;5805;51.542;7.230;2023-03-01T08:02:42;7.63;;;4.50;;
11496;SDS011;5805;51.542;7.230;2023-03-01T08:05:08;5.80;;;4.33;;
11496;SDS011;5805;51.542;7.230;2023-03-01T08:07:33;8.70;;;4.70;;
11496;SDS011;5805;51.542;7.230;2023-03-01T08:10:00;6.50;;;4.13;;
11496;SDS011;5805;51.542;7.230;2023-03-01T08:12:26;7.30;;;5.30;;
11496;SDS011;5805;51.542;7.230;2023-03-01T08:14:52;6.07;;;4.00;;
11496;SDS011;5805;51.542;7.230;2023-03-01T08:17:18;7.43;;;4.40;;
11496;SDS011;5805;51.542;7.230;2023-03-01T08:19:43;5.87;;;4.33;;
11496;SDS011;5805;51.542;7.230;2023-03-01T08:22:09;5.77;;;4.40;;
11496;SDS011;5805;51.542;7.230;2023-03-01T08:24:35;5.33;;;4.07;;
11496;SDS011;5805;51.542;7.230;2023-03-01T08:27:02;7.70;;;4.53;;
11496;SDS011;5805;51.542;7.230;2023-03-01T08:29:29;7.53;;;4.60;;
11496;SDS011;5805;51.542;7.230;2023-03-01T08:31:56;6.80;;;4.20;;
11496;SDS011;5805;51.542;7.230;2023-03-01T08:34:21;5.40;;;4.17;;
11496;SDS011;5805;51.542;7.230;2023-03-01T08:36:47;6.07;;;4.60;;
11496;SDS011;5805;51.542;7.230;2023-03-01T08:39:14;5.23;;;4.03;;
11496;SDS011;5805;51.542;7.230;2023-03-01T08:41:41;6.47;;;3.80;;
11496;SDS011;5805;51.542;7.230;2023-03-01T08:44:08;4.77;;;3.90;;
11496;SDS011;5805;51.542;7.230;2023-03-01T08:46:36;3.43;;;2.87;;
11496;SDS011;5805;51.542;7.230;2023-03-01T08:49:03;5.53;;;4.37;;
11496;SDS011;5805;51.542;7.230;2023-03-01T08:51:29;5.00;;;4.07;;
11496;SDS011;5805;51.542;7.230;2023-03-01T08:53:54;4.77;;;3.70;;
11496;SDS011;5805;51.542;7.230;2023-03-01T08:56:20;5.10;;;3.77;;
11496;SDS011;5805;51.542;7.230;2023-03-01T08:58:46;4.53;;;3.80;;
11496;SDS011;5805;51.542;7.230;2023-03-01T09:01:15;3.93;;;3.07;;
11496;SDS011;5805;51.542;7.230;2023-03-01T09:03:42;5.87;;;3.60;;
11496;SDS011;5805;51.542;7.230;2023-03-01T09:06:09;5.87;;;3.60;;
11496;SDS011;5805;51.542;7.230;2023-03-01T09:08:36;4.90;;;3.77;;
11496;SDS011;5805;51.542;7.230;2023-03-01T09:11:03;4.97;;;3.60;;
11496;SDS011;5805;51.542;7.230;2023-03-01T09:13:30;4.83;;;3.90;;
11496;SDS011;5805;51.542;7.230;2023-03-01T09:15:55;6.43;;;3.57;;
11496;SDS011;5805;51.542;7.230;2023-03-01T09:18:23;6.87;;;3.53;;
11496;SDS011;5805;51.542;7.230;2023-03-01T09:20:48;4.00;;;3.60;;
11496;SDS011;5805;51.542;7.230;2023-03-01T09:23:14;7.13;;;3.53;;
11496;SDS011;5805;51.542;7.230;2023-03-01T09:25:40;4.80;;;3.70;;
11496;SDS011;5805;51.542;7.230;2023-03-01T09:28:05;4.13;;;3.42;;
11496;SDS011;5805;51.542;7.230;2023-03-01T09:30:31;5.10;;;3.25;;
11496;SDS011;5805;51.542;7.230;2023-03-01T09:32:57;5.47;;;3.43;;
11496;SDS011;5805;51.542;7.230;2023-03-01T09:35:24;4.30;;;3.65;;
11496;SDS011;5805;51.542;7.230;2023-03-01T09:37:50;3.92;;;3.03;;
11496;SDS011;5805;51.542;7.230;2023-03-01T09:40:17;8.77;;;3.50;;
11496;SDS011;5805;51.542;7.230;2023-03-01T09:42:46;6.70;;;3.63;;
11496;SDS011;5805;51.542;7.230;2023-03-01T09:45:20;5.00;;;3.50;;
11496;SDS011;5805;51.542;7.230;2023-03-01T09:47:52;5.43;;;3.70;;
11496;SDS011;5805;51.542;7.230;2023-03-01T09:50:19;4.97;;;3.25;;
11496;SDS011;5805;51.542;7.230;2023-03-01T09:52:47;3.85;;;2.92;;
11496;SDS011;5805;51.542;7.230;2023-03-01T09:55:20;6.80;;;3.90;;
11496;SDS011;5805;51.542;7.230;2023-03-01T09:57:54;4.15;;;3.13;;
11496;SDS011;5805;51.542;7.230;2023-03-01T10:00:28;4.78;;;3.40;;
11496;SDS011;5805;51.542;7.230;2023-03-01T10:03:02;7.22;;;3.33;;
11496;SDS011;5805;51.542;7.230;2023-03-01T10:05:39;4.35;;;3.30;;
11496;SDS011;5805;51.542;7.230;2023-03-01T10:08:27;4.60;;;3.30;;
11496;SDS011;5805;51.542;7.230;2023-03-01T10:10:59;5.82;;;4.05;;
11496;SDS011;5805;51.542;7.230;2023-03-01T10:13:26;4.75;;;3.08;;
11496;SDS011;5805;51.542;7.230;2023-03-01T10:15:57;7.95;;;3.47;;
11496;SDS011;5805;51.542;7.230;2023-03-01T10:18:28;4.50;;;2.92;;
11496;SDS011;5805;51.542;7.230;2023-03-01T10:20:56;5.03;;;3.03;;
11496;SDS011;5805;51.542;7.230;2023-03-01T10:23:26;7.18;;;3.67;;
11496;SDS011;5805;51.542;7.230;2023-03-01T10:26:03;3.80;;;3.00;;
11496;SDS011;5805;51.542;7.230;2023-03-01T10:28:44;4.07;;;3.28;;
11496;SDS011;5805;51.542;7.230;2023-03-01T10:31:18;3.47;;;3.15;;
11496;SDS011;5805;51.542;7.230;2023-03-01T10:33:48;4.43;;;3.10;;
11496;SDS011;5805;51.542;7.230;2023-03-01T10:36:13;4.93;;;3.03;;
11496;SDS011;5805;51.542;7.230;2023-03-01T10:38:52;4.20;;;3.42;;
11496;SDS011;5805;51.542;7.230;2023-03-01T10:41:19;3.83;;;3.08;;
11496;SDS011;5805;51.542;7.230;2023-03-01T10:43:45;4.22;;;3.20;;
11496;SDS011;5805;51.542;7.230;2023-03-01T10:46:22;6.22;;;2.80;;
11496;SDS011;5805;51.542;7.230;2023-03-01T10:48:59;6.05;;;3.88;;
11496;SDS011;5805;51.542;7.230;2023-03-01T10:51:32;4.35;;;2.60;;
11496;SDS011;5805;51.542;7.230;2023-03-01T10:53:59;4.88;;;3.00;;
11496;SDS011;5805;51.542;7.230;2023-03-01T10:56:26;4.22;;;3.33;;
11496;SDS011;5805;51.542;7.230;2023-03-01T10:58:59;6.47;;;3.20;;
11496;SDS011;5805;51.542;7.230;2023-03-01T11:01:26;4.03;;;3.13;;
11496;SDS011;5805;51.542;7.230;2023-03-01T11:04:03;4.57;;;3.03;;
11496;SDS011;5805;51.542;7.230;2023-03-01T11:06:36;5.32;;;3.30;;
11496;SDS011;5805;51.542;7.230;2023-03-01T11:09:13;6.22;;;3.20;;
11496;SDS011;5805;51.542;7.230;2023-03-01T11:11:41;4.20;;;3.17;;
11496;SDS011;5805;51.542;7.230;2023-03-01T11:14:07;4.90;;;3.20;;
11496;SDS011;5805;51.542;7.230;2023-03-01T11:16:40;4.35;;;3.17;;
11496;SDS011;5805;51.542;7.230;2023-03-01T11:19:19;3.58;;;3.00;;
11496;SDS011;5805;51.542;7.230;2023-03-01T11:21:52;4.72;;;3.03;;
11496;SDS011;5805;51.542;7.230;2023-03-01T11:24:26;4.15;;;3.08;;
11496;SDS011;5805;51.542;7.230;2023-03-01T11:26:55;4.40;;;3.58;;
11496;SDS011;5805;51.542;7.230;2023-03-01T11:29:25;7.22;;;3.63;;
11496;SDS011;5805;51.542;7.230;2023-03-01T11:31:56;5.63;;;2.58;;
11496;SDS011;5805;51.542;7.230;2023-03-01T11:34:35;3.97;;;3.10;;
11496;SDS011;5805;51.542;7.230;2023-03-01T11:37:08;5.57;;;3.50;;
11496;SDS011;5805;51.542;7.230;2023-03-01T11:39:53;6.10;;;3.97;;
11496;SDS011;5805;51.542;7.230;2023-03-01T11:42:28;5.15;;;3.40;;
11496;SDS011;5805;51.542;7.230;2023-03-01T11:45:06;5.78;;;3.22;;
11496;SDS011;5805;51.542;7.230;2023-03-01T11:47:39;8.20;;;3.28;;
11496;SDS011;5805;51.542;7.230;2023-03-01T11:50:26;5.40;;;3.53;;
11496;SDS011;5805;51.542;7.230;2023-03-01T11:52:57;5.00;;;3.75;;
11496;SDS011;5805;51.542;7.230;2023-03-01T11:55:44;8.18;;;4.22;;
11496;SDS011;5805;51.542;7.230;2023-03-01T11:58:21;4.88;;;3.58;;
11496;SDS011;5805;51.542;7.230;2023-03-01T12:01:02;6.22;;;4.20;;
11496;SDS011;5805;51.542;7.230;2023-03-01T12:06:35;8.15;;;4.40;;
11496;SDS011;5805;51.542;7.230;2023-03-01T12:09:14;5.50;;;3.67;;
11496;SDS011;5805;51.542;7.230;2023-03-01T12:11:56;6.63;;;4.38;;
11496;SDS011;5805;51.542;7.230;2023-03-01T12:14:42;8.00;;;5.03;;
11496;SDS011;5805;51.542;7.230;2023-03-01T12:17:22;5.45;;;3.50;;
11496;SDS011;5805;51.542;7.230;2023-03-01T12:20:15;5.43;;;3.40;;
11496;SDS011;5805;51.542;7.230;2023-03-01T12:22:52;4.45;;;3.67;;
11496;SDS011;5805;51.542;7.230;2023-03-01T12:25:46;9.95;;;4.80;;
11496;SDS011;5805;51.542;7.230;2023-03-01T12:28:35;6.60;;;4.28;;
11496;SDS011;5805;51.542;7.230;2023-03-01T12:34:18;4.43;;;3.40;;
11496;SDS011;5805;51.542;7.230;2023-03-01T12:37:11;5.20;;;3.67;;
11496;SDS011;5805;51.542;7.230;2023-03-01T12:39:50;5.72;;;3.65;;
11496;SDS011;5805;51.542;7.230;2023-03-01T12:42:27;5.82;;;3.58;;
11496;SDS011;5805;51.542;7.230;2023-03-01T12:48:00;6.63;;;4.07;;
11496;SDS011;5805;51.542;7.230;2023-03-01T12:50:47;5.53;;;3.88;;
11496;SDS011;5805;51.542;7.230;2023-03-01T12:53:19;7.60;;;4.07;;
11496;SDS011;5805;51.542;7.230;2023-03-01T12:55:47;5.45;;;3.10;;
11496;SDS011;5805;51.542;7.230;2023-03-01T12:58:17;6.05;;;4.07;;
11496;SDS011;5805;51.542;7.230;2023-03-01T13:00:53;6.40;;;3.83;;
11496;SDS011;5805;51.542;7.230;2023-03-01T13:03:31;6.32;;;3.75;;
11496;SDS011;5805;51.542;7.230;2023-03-01T13:06:22;6.07;;;4.60;;
11496;SDS011;5805;51.542;7.230;2023-03-01T13:08:55;6.35;;;4.28;;
11496;SDS011;5805;51.542;7.230;2023-03-01T13:11:25;5.72;;;3.80;;
11496;SDS011;5805;51.542;7.230;2023-03-01T13:13:51;5.50;;;3.78;;
11496;SDS011;5805;51.542;7.230;2023-03-01T13:16:42;4.95;;;3.38;;
11496;SDS011;5805;51.542;7.230;2023-03-01T13:19:10;6.22;;;4.72;;
11496;SDS011;5805;51.542;7.230;2023-03-01T13:21:39;5.25;;;4.10;;
11496;SDS011;5805;51.542;7.230;2023-03-01T13:24:22;5.55;;;3.95;;
11496;SDS011;5805;51.542;7.230;2023-03-01T13:29:43;4.93;;;3.83;;
11496;SDS011;5805;51.542;7.230;2023-03-01T13:32:20;4.82;;;4.15;;
11496;SDS011;5805;51.542;7.230;2023-03-01T13:34:51;4.97;;;3.58;;
11496;SDS011;5805;51.542;7.230;2023-03-01T13:37:20;6.10;;;3.47;;
11496;SDS011;5805;51.542;7.230;2023-03-01T13:39:57;4.13;;;3.13;;
11496;SDS011;5805;51.542;7.230;2023-03-01T13:42:29;5.32;;;4.15;;
11496;SDS011;5805;51.542;7.230;2023-03-01T13:45:05;7.35;;;3.92;;
11496;SDS011;5805;51.542;7.230;2023-03-01T13:47:42;7.68;;;4.22;;
11496;SDS011;5805;51.542;7.230;2023-03-01T13:50:15;6.55;;;4.22;;
11496;SDS011;5805;51.542;7.230;2023-03-01T13:52:45;4.68;;;3.65;;
11496;SDS011;5805;51.542;7.230;2023-03-01T13:55:16;6.43;;;4.55;;
11496;SDS011;5805;51.542;7.230;2023-03-01T13:57:44;6.13;;;3.58;;
11496;SDS011;5805;51.542;7.230;2023-03-01T14:00:25;4.65;;;3.15;;
11496;SDS011;5805;51.542;7.230;2023-03-01T14:03:00;5.05;;;3.78;;
11496;SDS011;5805;51.542;7.230;2023-03-01T14:05:31;6.32;;;4.50;;
11496;SDS011;5805;51.542;7.230;2023-03-01T14:07:57;6.38;;;4.13;;
11496;SDS011;5805;51.542;7.230;2023-03-01T14:10:25;6.15;;;3.80;;
11496;SDS011;5805;51.542;7.230;2023-03-01T14:12:59;7.82;;;4.00;;
11496;SDS011;5805;51.542;7.230;2023-03-01T14:15:34;7.47;;;4.28;;
11496;SDS011;5805;51.542;7.230;2023-03-01T14:18:06;4.45;;;3.20;;
11496;SDS011;5805;51.542;7.230;2023-03-01T14:20:38;7.00;;;4.00;;
11496;SDS011;5805;51.542;7.230;2023-03-01T14:23:08;4.88;;;3.72;;
11496;SDS011;5805;51.542;7.230;2023-03-01T14:25:37;6.30;;;4.03;;
11496;SDS011;5805;51.542;7.230;2023-03-01T14:28:04;8.88;;;4.60;;
11496;SDS011;5805;51.542;7.230;2023-03-01T14:30:40;5.63;;;3.58;;
11496;SDS011;5805;51.542;7.230;2023-03-01T14:33:18;5.55;;;4.03;;
11496;SDS011;5805;51.542;7.230;2023-03-01T14:35:54;6.47;;;3.58;;
11496;SDS011;5805;51.542;7.230;2023-03-01T14:38:21;3.47;;;2.90;;
11496;SDS011;5805;51.542;7.230;2023-03-01T14:40:49;6.10;;;4.45;;
11496;SDS011;5805;51.542;7.230;2023-03-01T14:43:21;7.53;;;4.55;;
11496;SDS011;5805;51.542;7.230;2023-03-01T14:45:49;6.07;;;3.92;;
11496;SDS011;5805;51.542;7.230;2023-03-01T14:48:15;9.07;;;4.68;;
11496;SDS011;5805;51.542;7.230;2023-03-01T14:50:43;5.05;;;4.13;;
11496;SDS011;5805;51.542;7.230;2023-03-01T14:53:14;6.35;;;3.72;;
11496;SDS011;5805;51.542;7.230;2023-03-01T14:55:44;5.38;;;4.13;;
11496;SDS011;5805;51.542;7.230;2023-03-01T14:58:12;6.55;;;4.82;;
11496;SDS011;5805;51.542;7.230;2023-03-01T15:00:39;6.00;;;3.95;;
11496;SDS011;5805;51.542;7.230;2023-03-01T15:03:14;7.25;;;4.10;;
11496;SDS011;5805;51.542;7.230;2023-03-01T15:05:48;4.93;;;4.05;;
11496;SDS011;5805;51.542;7.230;2023-03-01T15:08:16;4.47;;;3.60;;
11496;SDS011;5805;51.542;7.230;2023-03-01T15:10:54;8.88;;;4.18;;
11496;SDS011;5805;51.542;7.230;2023-03-01T15:13:23;6.45;;;4.05;;
11496;SDS011;5805;51.542;7.230;2023-03-01T15:15:49;4.75;;;3.42;;
11496;SDS011;5805;51.542;7.230;2023-03-01T15:18:20;7.97;;;4.10;;
11496;SDS011;5805;51.542;7.230;2023-03-01T15:20:50;8.15;;;4.00;;
11496;SDS011;5805;51.542;7.230;2023-03-01T15:23:18;5.22;;;4.03;;
11496;SDS011;5805;51.542;7.230;2023-03-01T15:25:46;6.82;;;4.13;;